sensor_id;sensor_type;location;lat;lon;timestamp;P1;durP1;ratioP1;P2;durP2;ratioP2
36575;SDS011;45700;50.930;5.168;2023-08-07T00:01:54;8.60;;;1.30;;
36575;SDS011;45700;50.930;5.168;2023-08-07T00:05:55;7.43;;;1.38;;
36575;SDS011;45700;50.930;5.168;2023-08-07T00:09:56;3.95;;;1.10;;
36575;SDS011;45700;50.930;5.168;2023-08-07T00:13:57;4.55;;;1.23;;
36575;SDS011;45700;50.930;5.168;2023-08-07T00:17:59;12.77;;;2.22;;
36575;SDS011;45700;50.930;5.168;2023-08-07T00:22:00;5.45;;;1.70;;
36575;SDS011;45700;50.930;5.168;2023-08-07T00:26:01;4.43;;;1.13;;
36575;SDS011;45700;50.930;5.168;2023-08-07T00:30:02;3.90;;;1.20;;
36575;SDS011;45700;50.930;5.168;2023-08-07T00:34:04;6.53;;;1.60;;
36575;SDS011;45700;50.930;5.168;2023-08-07T00:38:04;5.53;;;1.30;;
36575;SDS011;45700;50.930;5.168;2023-08-07T00:42:06;5.15;;;1.77;;
36575;SDS011;45700;50.930;5.168;2023-08-07T00:46:07;4.10;;;1.55;;
36575;SDS011;45700;50.930;5.168;2023-08-07T00:50:08;4.22;;;1.13;;
36575;SDS011;45700;50.930;5.168;2023-08-07T00:54:09;7.53;;;1.35;;
36575;SDS011;45700;50.930;5.168;2023-08-07T00:58:11;3.53;;;1.20;;
36575;SDS011;45700;50.930;5.168;2023-08-07T01:02:12;13.88;;;1.40;;
36575;SDS011;45700;50.930;5.168;2023-08-07T01:06:13;14.80;;;1.40;;
36575;SDS011;45700;50.930;5.168;2023-08-07T01:10:15;9.25;;;2.13;;
36575;SDS011;45700;50.930;5.168;2023-08-07T01:18:30;7.57;;;1.55;;
36575;SDS011;45700;50.930;5.168;2023-08-07T01:22:31;7.15;;;1.83;;
36575;SDS011;45700;50.930;5.168;2023-08-07T01:26:32;4.32;;;1.17;;
36575;SDS011;45700;50.930;5.168;2023-08-07T01:30:38;3.10;;;1.08;;
36575;SDS011;45700;50.930;5.168;2023-08-07T01:34:41;3.72;;;1.30;;
36575;SDS011;45700;50.930;5.168;2023-08-07T01:38:42;9.02;;;1.40;;
36575;SDS011;45700;50.930;5.168;2023-08-07T01:42:44;4.30;;;1.50;;
36575;SDS011;45700;50.930;5.168;2023-08-07T01:46:45;2.95;;;1.38;;
36575;SDS011;45700;50.930;5.168;2023-08-07T01:50:46;4.93;;;1.45;;
36575;SDS011;45700;50.930;5.168;2023-08-07T01:54:47;3.80;;;1.17;;
36575;SDS011;45700;50.930;5.168;2023-08-07T01:58:48;6.72;;;1.50;;
36575;SDS011;45700;50.930;5.168;2023-08-07T02:02:49;3.20;;;1.25;;
36575;SDS011;45700;50.930;5.168;2023-08-07T02:06:50;3.00;;;0.95;;
36575;SDS011;45700;50.930;5.168;2023-08-07T02:10:51;3.90;;;1.38;;
36575;SDS011;45700;50.930;5.168;2023-08-07T02:14:52;5.78;;;1.20;;
36575;SDS011;45700;50.930;5.168;2023-08-07T02:18:53;4.40;;;1.48;;
36575;SDS011;45700;50.930;5.168;2023-08-07T02:22:54;4.35;;;1.30;;
36575;SDS011;45700;50.930;5.168;2023-08-07T02:26:55;2.25;;;1.23;;
36575;SDS011;45700;50.930;5.168;2023-08-07T02:30:56;4.43;;;0.95;;
36575;SDS011;45700;50.930;5.168;2023-08-07T02:34:57;4.22;;;1.20;;
36575;SDS011;45700;50.930;5.168;2023-08-07T02:38:58;6.47;;;1.63;;
36575;SDS011;45700;50.930;5.168;2023-08-07T02:42:59;4.03;;;1.80;;
36575;SDS011;45700;50.930;5.168;2023-08-07T02:47:00;9.00;;;1.33;;
36575;SDS011;45700;50.930;5.168;2023-08-07T02:51:01;2.00;;;1.00;;
36575;SDS011;45700;50.930;5.168;2023-08-07T02:55:02;2.50;;;1.00;;
36575;SDS011;45700;50.930;5.168;2023-08-07T02:59:03;2.90;;;1.00;;
36575;SDS011;45700;50.930;5.168;2023-08-07T03:03:05;2.17;;;1.10;;
36575;SDS011;45700;50.930;5.168;2023-08-07T03:07:06;4.93;;;1.10;;
36575;SDS011;45700;50.930;5.168;2023-08-07T03:11:07;1.27;;;0.85;;
36575;SDS011;45700;50.930;5.168;2023-08-07T03:15:08;5.20;;;1.05;;
36575;SDS011;45700;50.930;5.168;2023-08-07T03:19:09;4.03;;;1.20;;
36575;SDS011;45700;50.930;5.168;2023-08-07T03:23:10;5.22;;;1.60;;
36575;SDS011;45700;50.930;5.168;2023-08-07T03:27:11;5.00;;;1.33;;
36575;SDS011;45700;50.930;5.168;2023-08-07T03:31:12;2.03;;;1.00;;
36575;SDS011;45700;50.930;5.168;2023-08-07T03:35:13;1.75;;;0.80;;
36575;SDS011;45700;50.930;5.168;2023-08-07T03:39:14;1.38;;;0.80;;
36575;SDS011;45700;50.930;5.168;2023-08-07T03:43:15;5.57;;;1.05;;
36575;SDS011;45700;50.930;5.168;2023-08-07T03:47:16;4.68;;;1.20;;
36575;SDS011;45700;50.930;5.168;2023-08-07T03:51:17;2.70;;;0.90;;
36575;SDS011;45700;50.930;5.168;2023-08-07T03:55:18;4.05;;;1.23;;
36575;SDS011;45700;50.930;5.168;2023-08-07T03:59:19;2.75;;;0.70;;
36575;SDS011;45700;50.930;5.168;2023-08-07T04:03:20;2.72;;;1.15;;
36575;SDS011;45700;50.930;5.168;2023-08-07T04:07:22;11.52;;;1.10;;
36575;SDS011;45700;50.930;5.168;2023-08-07T04:11:23;1.67;;;1.05;;
36575;SDS011;45700;50.930;5.168;2023-08-07T04:15:24;3.80;;;1.10;;
36575;SDS011;45700;50.930;5.168;2023-08-07T04:19:25;5.65;;;1.17;;
36575;SDS011;45700;50.930;5.168;2023-08-07T04:23:26;3.35;;;1.27;;
36575;SDS011;45700;50.930;5.168;2023-08-07T04:27:27;3.03;;;1.20;;
36575;SDS011;45700;50.930;5.168;2023-08-07T04:31:29;2.90;;;1.02;;
36575;SDS011;45700;50.930;5.168;2023-08-07T04:35:34;7.75;;;1.90;;
36575;SDS011;45700;50.930;5.168;2023-08-07T04:39:35;2.90;;;0.80;;
36575;SDS011;45700;50.930;5.168;2023-08-07T04:43:36;2.30;;;0.90;;
36575;SDS011;45700;50.930;5.168;2023-08-07T04:47:37;3.70;;;1.38;;
36575;SDS011;45700;50.930;5.168;2023-08-07T04:51:38;3.95;;;1.15;;
36575;SDS011;45700;50.930;5.168;2023-08-07T04:55:39;5.13;;;0.70;;
36575;SDS011;45700;50.930;5.168;2023-08-07T04:59:40;1.85;;;1.00;;
36575;SDS011;45700;50.930;5.168;2023-08-07T05:03:41;2.38;;;1.30;;
36575;SDS011;45700;50.930;5.168;2023-08-07T05:07:42;6.30;;;0.90;;
36575;SDS011;45700;50.930;5.168;2023-08-07T05:11:43;4.10;;;1.30;;
36575;SDS011;45700;50.930;5.168;2023-08-07T05:15:46;3.70;;;1.10;;
36575;SDS011;45700;50.930;5.168;2023-08-07T05:19:47;1.92;;;0.95;;
36575;SDS011;45700;50.930;5.168;2023-08-07T05:23:48;6.03;;;1.13;;
36575;SDS011;45700;50.930;5.168;2023-08-07T05:27:53;1.73;;;0.75;;
36575;SDS011;45700;50.930;5.168;2023-08-07T05:31:54;5.50;;;0.85;;
36575;SDS011;45700;50.930;5.168;2023-08-07T05:35:55;2.35;;;0.90;;
36575;SDS011;45700;50.930;5.168;2023-08-07T05:39:56;2.83;;;1.40;;
36575;SDS011;45700;50.930;5.168;2023-08-07T05:43:57;4.07;;;1.15;;
36575;SDS011;45700;50.930;5.168;2023-08-07T05:47:58;3.60;;;0.80;;
36575;SDS011;45700;50.930;5.168;2023-08-07T05:51:59;4.00;;;1.20;;
36575;SDS011;45700;50.930;5.168;2023-08-07T05:56:00;4.65;;;1.00;;
36575;SDS011;45700;50.930;5.168;2023-08-07T06:00:01;2.85;;;1.05;;
36575;SDS011;45700;50.930;5.168;2023-08-07T06:04:02;3.00;;;1.27;;
36575;SDS011;45700;50.930;5.168;2023-08-07T06:08:03;6.50;;;1.13;;
36575;SDS011;45700;50.930;5.168;2023-08-07T06:12:04;2.85;;;1.10;;
36575;SDS011;45700;50.930;5.168;2023-08-07T06:16:05;1.70;;;0.98;;
36575;SDS011;45700;50.930;5.168;2023-08-07T06:20:07;2.92;;;0.80;;
36575;SDS011;45700;50.930;5.168;2023-08-07T06:24:10;2.20;;;1.05;;
36575;SDS011;45700;50.930;5.168;2023-08-07T06:28:12;3.75;;;1.05;;
36575;SDS011;45700;50.930;5.168;2023-08-07T06:32:13;5.05;;;1.60;;
36575;SDS011;45700;50.930;5.168;2023-08-07T06:36:14;9.02;;;1.42;;
36575;SDS011;45700;50.930;5.168;2023-08-07T06:40:15;6.47;;;1.30;;
36575;SDS011;45700;50.930;5.168;2023-08-07T06:44:16;3.97;;;1.40;;
36575;SDS011;45700;50.930;5.168;2023-08-07T06:48:17;2.97;;;1.33;;
36575;SDS011;45700;50.930;5.168;2023-08-07T06:52:18;1.63;;;0.80;;
36575;SDS011;45700;50.930;5.168;2023-08-07T06:56:19;3.03;;;0.90;;
36575;SDS011;45700;50.930;5.168;2023-08-07T07:00:20;4.40;;;1.00;;
36575;SDS011;45700;50.930;5.168;2023-08-07T07:04:21;5.03;;;1.27;;
36575;SDS011;45700;50.930;5.168;2023-08-07T07:08:22;3.38;;;0.85;;
36575;SDS011;45700;50.930;5.168;2023-08-07T07:12:23;4.38;;;1.65;;
36575;SDS011;45700;50.930;5.168;2023-08-07T07:16:24;3.75;;;1.02;;
36575;SDS011;45700;50.930;5.168;2023-08-07T07:20:25;9.63;;;1.25;;
36575;SDS011;45700;50.930;5.168;2023-08-07T07:24:26;1.40;;;0.77;;
36575;SDS011;45700;50.930;5.168;2023-08-07T07:28:27;4.28;;;1.25;;
36575;SDS011;45700;50.930;5.168;2023-08-07T07:32:28;6.85;;;1.23;;
36575;SDS011;45700;50.930;5.168;2023-08-07T07:36:29;3.42;;;1.10;;
36575;SDS011;45700;50.930;5.168;2023-08-07T07:40:30;6.45;;;1.42;;
36575;SDS011;45700;50.930;5.168;2023-08-07T07:44:31;4.25;;;1.20;;
36575;SDS011;45700;50.930;5.168;2023-08-07T07:48:33;2.95;;;1.08;;
36575;SDS011;45700;50.930;5.168;2023-08-07T07:52:35;4.28;;;1.20;;
36575;SDS011;45700;50.930;5.168;2023-08-07T07:56:36;2.15;;;0.68;;
36575;SDS011;45700;50.930;5.168;2023-08-07T08:00:37;5.20;;;1.20;;
36575;SDS011;45700;50.930;5.168;2023-08-07T08:04:38;6.55;;;1.38;;
36575;SDS011;45700;50.930;5.168;2023-08-07T08:08:39;4.45;;;1.10;;
36575;SDS011;45700;50.930;5.168;2023-08-07T08:12:42;2.55;;;0.90;;
36575;SDS011;45700;50.930;5.168;2023-08-07T08:16:43;5.60;;;1.40;;
36575;SDS011;45700;50.930;5.168;2023-08-07T08:20:44;4.90;;;1.00;;
36575;SDS011;45700;50.930;5.168;2023-08-07T08:24:45;4.63;;;1.98;;
36575;SDS011;45700;50.930;5.168;2023-08-07T08:28:47;2.85;;;1.23;;
36575;SDS011;45700;50.930;5.168;2023-08-07T08:32:48;3.25;;;1.45;;
36575;SDS011;45700;50.930;5.168;2023-08-07T08:36:49;3.13;;;1.15;;
36575;SDS011;45700;50.930;5.168;2023-08-07T08:40:51;4.68;;;1.60;;
36575;SDS011;45700;50.930;5.168;2023-08-07T08:44:53;4.05;;;1.20;;
36575;SDS011;45700;50.930;5.168;2023-08-07T08:48:56;1.48;;;0.73;;
36575;SDS011;45700;50.930;5.168;2023-08-07T08:52:58;3.92;;;1.17;;
36575;SDS011;45700;50.930;5.168;2023-08-07T08:57:00;5.43;;;1.25;;
36575;SDS011;45700;50.930;5.168;2023-08-07T09:01:01;2.83;;;1.02;;
36575;SDS011;45700;50.930;5.168;2023-08-07T09:05:02;2.67;;;1.17;;
36575;SDS011;45700;50.930;5.168;2023-08-07T09:09:04;4.25;;;0.90;;
36575;SDS011;45700;50.930;5.168;2023-08-07T09:13:10;4.95;;;1.52;;
36575;SDS011;45700;50.930;5.168;2023-08-07T09:17:12;3.53;;;1.40;;
36575;SDS011;45700;50.930;5.168;2023-08-07T09:21:13;5.53;;;1.20;;
36575;SDS011;45700;50.930;5.168;2023-08-07T09:25:37;2.25;;;1.30;;
36575;SDS011;45700;50.930;5.168;2023-08-07T09:29:40;3.67;;;1.30;;
36575;SDS011;45700;50.930;5.168;2023-08-07T09:33:41;3.35;;;1.27;;
36575;SDS011;45700;50.930;5.168;2023-08-07T09:37:43;6.55;;;1.15;;
36575;SDS011;45700;50.930;5.168;2023-08-07T09:41:44;3.20;;;1.10;;
36575;SDS011;45700;50.930;5.168;2023-08-07T09:45:51;2.60;;;1.13;;
36575;SDS011;45700;50.930;5.168;2023-08-07T09:49:53;5.57;;;1.08;;
36575;SDS011;45700;50.930;5.168;2023-08-07T09:53:55;3.78;;;1.40;;
36575;SDS011;45700;50.930;5.168;2023-08-07T09:57:59;7.15;;;1.40;;
36575;SDS011;45700;50.930;5.168;2023-08-07T10:02:00;5.22;;;1.05;;
36575;SDS011;45700;50.930;5.168;2023-08-07T10:06:04;2.20;;;0.90;;
36575;SDS011;45700;50.930;5.168;2023-08-07T10:10:06;4.05;;;1.17;;
36575;SDS011;45700;50.930;5.168;2023-08-07T10:14:17;4.32;;;1.42;;
36575;SDS011;45700;50.930;5.168;2023-08-07T10:18:18;4.38;;;1.02;;
36575;SDS011;45700;50.930;5.168;2023-08-07T10:22:23;3.70;;;1.45;;
36575;SDS011;45700;50.930;5.168;2023-08-07T10:26:25;2.78;;;1.00;;
36575;SDS011;45700;50.930;5.168;2023-08-07T10:30:27;1.30;;;0.85;;
36575;SDS011;45700;50.930;5.168;2023-08-07T10:34:29;4.20;;;1.15;;
36575;SDS011;45700;50.930;5.168;2023-08-07T10:38:30;3.65;;;1.05;;
36575;SDS011;45700;50.930;5.168;2023-08-07T10:42:33;4.55;;;1.10;;
36575;SDS011;45700;50.930;5.168;2023-08-07T10:46:51;3.40;;;1.30;;
36575;SDS011;45700;50.930;5.168;2023-08-07T10:55:00;1.13;;;0.90;;
36575;SDS011;45700;50.930;5.168;2023-08-07T10:59:08;1.70;;;1.10;;
36575;SDS011;45700;50.930;5.168;2023-08-07T11:03:10;1.98;;;0.80;;
36575;SDS011;45700;50.930;5.168;2023-08-07T11:07:11;4.38;;;1.00;;
36575;SDS011;45700;50.930;5.168;2023-08-07T11:11:23;2.13;;;0.98;;
36575;SDS011;45700;50.930;5.168;2023-08-07T11:15:24;3.42;;;0.88;;
36575;SDS011;45700;50.930;5.168;2023-08-07T11:19:25;2.28;;;1.00;;
36575;SDS011;45700;50.930;5.168;2023-08-07T11:23:26;2.33;;;0.80;;
36575;SDS011;45700;50.930;5.168;2023-08-07T11:27:27;5.90;;;1.23;;
36575;SDS011;45700;50.930;5.168;2023-08-07T11:31:28;1.98;;;1.20;;
36575;SDS011;45700;50.930;5.168;2023-08-07T11:35:29;3.92;;;0.93;;
36575;SDS011;45700;50.930;5.168;2023-08-07T11:39:30;2.08;;;0.85;;
36575;SDS011;45700;50.930;5.168;2023-08-07T11:43:32;3.05;;;0.80;;
36575;SDS011;45700;50.930;5.168;2023-08-07T11:47:33;1.45;;;0.85;;
36575;SDS011;45700;50.930;5.168;2023-08-07T11:51:34;2.78;;;0.90;;
36575;SDS011;45700;50.930;5.168;2023-08-07T11:55:35;3.90;;;1.20;;
36575;SDS011;45700;50.930;5.168;2023-08-07T11:59:36;3.53;;;0.95;;
36575;SDS011;45700;50.930;5.168;2023-08-07T12:03:38;1.75;;;1.02;;
36575;SDS011;45700;50.930;5.168;2023-08-07T12:07:39;3.85;;;0.90;;
36575;SDS011;45700;50.930;5.168;2023-08-07T12:11:41;1.25;;;0.77;;
36575;SDS011;45700;50.930;5.168;2023-08-07T12:15:42;2.20;;;1.20;;
36575;SDS011;45700;50.930;5.168;2023-08-07T12:19:43;1.60;;;0.82;;
36575;SDS011;45700;50.930;5.168;2023-08-07T12:23:46;2.25;;;0.80;;
36575;SDS011;45700;50.930;5.168;2023-08-07T12:27:50;4.50;;;0.80;;
36575;SDS011;45700;50.930;5.168;2023-08-07T12:31:52;1.90;;;0.80;;
36575;SDS011;45700;50.930;5.168;2023-08-07T12:35:54;0.60;;;0.60;;
36575;SDS011;45700;50.930;5.168;2023-08-07T12:39:56;1.98;;;0.68;;
36575;SDS011;45700;50.930;5.168;2023-08-07T12:43:57;1.30;;;0.55;;
36575;SDS011;45700;50.930;5.168;2023-08-07T12:47:59;1.88;;;0.60;;
36575;SDS011;45700;50.930;5.168;2023-08-07T12:52:00;2.75;;;0.70;;
36575;SDS011;45700;50.930;5.168;2023-08-07T12:56:01;1.30;;;0.73;;
36575;SDS011;45700;50.930;5.168;2023-08-07T13:00:05;1.88;;;0.60;;
36575;SDS011;45700;50.930;5.168;2023-08-07T13:04:07;0.85;;;0.63;;
36575;SDS011;45700;50.930;5.168;2023-08-07T13:08:08;3.33;;;0.55;;
36575;SDS011;45700;50.930;5.168;2023-08-07T13:12:09;0.52;;;0.40;;
36575;SDS011;45700;50.930;5.168;2023-08-07T13:16:10;1.95;;;0.50;;
36575;SDS011;45700;50.930;5.168;2023-08-07T13:20:12;1.83;;;0.60;;
36575;SDS011;45700;50.930;5.168;2023-08-07T13:24:13;2.42;;;0.65;;
36575;SDS011;45700;50.930;5.168;2023-08-07T13:28:14;1.67;;;0.73;;
36575;SDS011;45700;50.930;5.168;2023-08-07T13:32:16;3.55;;;0.90;;
36575;SDS011;45700;50.930;5.168;2023-08-07T13:36:20;4.47;;;0.70;;
36575;SDS011;45700;50.930;5.168;2023-08-07T13:40:21;1.02;;;0.70;;
36575;SDS011;45700;50.930;5.168;2023-08-07T13:44:22;1.00;;;0.80;;
36575;SDS011;45700;50.930;5.168;2023-08-07T13:48:23;0.90;;;0.70;;
36575;SDS011;45700;50.930;5.168;2023-08-07T13:52:26;3.63;;;0.70;;
36575;SDS011;45700;50.930;5.168;2023-08-07T13:56:27;4.07;;;0.93;;
36575;SDS011;45700;50.930;5.168;2023-08-07T14:00:28;0.85;;;0.60;;
36575;SDS011;45700;50.930;5.168;2023-08-07T14:04:29;0.98;;;0.60;;
36575;SDS011;45700;50.930;5.168;2023-08-07T14:08:30;3.15;;;0.80;;
36575;SDS011;45700;50.930;5.168;2023-08-07T14:12:32;4.63;;;0.98;;
36575;SDS011;45700;50.930;5.168;2023-08-07T14:16:33;1.88;;;0.80;;
36575;SDS011;45700;50.930;5.168;2023-08-07T14:20:35;1.08;;;0.63;;
36575;SDS011;45700;50.930;5.168;2023-08-07T14:24:36;0.98;;;0.85;;
36575;SDS011;45700;50.930;5.168;2023-08-07T14:28:37;1.35;;;0.95;;
36575;SDS011;45700;50.930;5.168;2023-08-07T14:32:38;0.93;;;0.88;;
36575;SDS011;45700;50.930;5.168;2023-08-07T14:36:39;1.05;;;0.60;;
36575;SDS011;45700;50.930;5.168;2023-08-07T14:40:40;1.88;;;1.02;;
36575;SDS011;45700;50.930;5.168;2023-08-07T14:44:43;2.83;;;1.10;;
36575;SDS011;45700;50.930;5.168;2023-08-07T14:48:44;3.53;;;1.13;;
36575;SDS011;45700;50.930;5.168;2023-08-07T14:52:45;1.98;;;0.70;;
36575;SDS011;45700;50.930;5.168;2023-08-07T14:56:46;1.48;;;0.60;;
36575;SDS011;45700;50.930;5.168;2023-08-07T15:00:47;1.92;;;1.00;;
36575;SDS011;45700;50.930;5.168;2023-08-07T15:04:50;1.08;;;0.75;;
36575;SDS011;45700;50.930;5.168;2023-08-07T15:08:51;1.77;;;0.57;;
36575;SDS011;45700;50.930;5.168;2023-08-07T15:12:52;1.83;;;0.77;;
36575;SDS011;45700;50.930;5.168;2023-08-07T15:16:54;1.13;;;0.70;;
36575;SDS011;45700;50.930;5.168;2023-08-07T15:20:55;0.95;;;0.60;;
36575;SDS011;45700;50.930;5.168;2023-08-07T15:24:57;1.13;;;0.60;;
36575;SDS011;45700;50.930;5.168;2023-08-07T15:28:58;1.05;;;0.73;;
36575;SDS011;45700;50.930;5.168;2023-08-07T15:32:59;1.75;;;0.93;;
36575;SDS011;45700;50.930;5.168;2023-08-07T15:37:00;2.33;;;0.55;;
36575;SDS011;45700;50.930;5.168;2023-08-07T15:41:01;1.80;;;0.52;;
36575;SDS011;45700;50.930;5.168;2023-08-07T15:45:02;1.75;;;0.77;;
36575;SDS011;45700;50.930;5.168;2023-08-07T15:49:04;1.75;;;0.88;;
36575;SDS011;45700;50.930;5.168;2023-08-07T15:53:05;1.23;;;0.85;;
36575;SDS011;45700;50.930;5.168;2023-08-07T15:57:06;2.42;;;1.17;;
36575;SDS011;45700;50.930;5.168;2023-08-07T16:01:07;0.52;;;0.50;;
36575;SDS011;45700;50.930;5.168;2023-08-07T16:05:09;1.48;;;0.82;;
36575;SDS011;45700;50.930;5.168;2023-08-07T16:09:10;1.60;;;0.50;;
36575;SDS011;45700;50.930;5.168;2023-08-07T16:13:11;0.57;;;0.50;;
36575;SDS011;45700;50.930;5.168;2023-08-07T16:17:14;1.17;;;0.43;;
36575;SDS011;45700;50.930;5.168;2023-08-07T16:21:15;2.05;;;0.60;;
36575;SDS011;45700;50.930;5.168;2023-08-07T16:25:16;0.50;;;0.30;;
36575;SDS011;45700;50.930;5.168;2023-08-07T16:29:17;1.90;;;0.63;;
36575;SDS011;45700;50.930;5.168;2023-08-07T16:33:18;0.50;;;0.47;;
36575;SDS011;45700;50.930;5.168;2023-08-07T16:37:19;0.57;;;0.57;;
36575;SDS011;45700;50.930;5.168;2023-08-07T16:41:20;1.17;;;0.60;;
36575;SDS011;45700;50.930;5.168;2023-08-07T16:45:21;1.20;;;0.50;;
36575;SDS011;45700;50.930;5.168;2023-08-07T16:49:23;2.55;;;0.50;;
36575;SDS011;45700;50.930;5.168;2023-08-07T16:53:24;1.15;;;0.50;;
36575;SDS011;45700;50.930;5.168;2023-08-07T16:57:25;0.90;;;0.70;;
36575;SDS011;45700;50.930;5.168;2023-08-07T17:01:26;1.38;;;0.60;;
36575;SDS011;45700;50.930;5.168;2023-08-07T17:05:27;0.55;;;0.40;;
36575;SDS011;45700;50.930;5.168;2023-08-07T17:09:29;2.45;;;0.40;;
36575;SDS011;45700;50.930;5.168;2023-08-07T17:13:30;2.28;;;0.40;;
36575;SDS011;45700;50.930;5.168;2023-08-07T17:17:31;1.40;;;0.50;;
36575;SDS011;45700;50.930;5.168;2023-08-07T17:21:32;1.15;;;0.40;;
36575;SDS011;45700;50.930;5.168;2023-08-07T17:25:33;2.05;;;0.30;;
36575;SDS011;45700;50.930;5.168;2023-08-07T17:29:34;1.60;;;0.50;;
36575;SDS011;45700;50.930;5.168;2023-08-07T17:33:35;0.65;;;0.50;;
36575;SDS011;45700;50.930;5.168;2023-08-07T17:37:37;1.30;;;0.50;;
36575;SDS011;45700;50.930;5.168;2023-08-07T17:41:38;0.82;;;0.60;;
36575;SDS011;45700;50.930;5.168;2023-08-07T17:45:39;1.02;;;0.68;;
36575;SDS011;45700;50.930;5.168;2023-08-07T17:49:40;0.70;;;0.52;;
36575;SDS011;45700;50.930;5.168;2023-08-07T17:53:42;1.10;;;0.60;;
36575;SDS011;45700;50.930;5.168;2023-08-07T17:57:43;0.98;;;0.60;;
36575;SDS011;45700;50.930;5.168;2023-08-07T18:01:44;0.98;;;0.52;;
36575;SDS011;45700;50.930;5.168;2023-08-07T18:05:45;1.23;;;0.57;;
36575;SDS011;45700;50.930;5.168;2023-08-07T18:09:46;0.50;;;0.40;;
36575;SDS011;45700;50.930;5.168;2023-08-07T18:13:47;1.05;;;0.60;;
36575;SDS011;45700;50.930;5.168;2023-08-07T18:17:48;1.50;;;0.60;;
36575;SDS011;45700;50.930;5.168;2023-08-07T18:21:49;3.05;;;0.90;;
36575;SDS011;45700;50.930;5.168;2023-08-07T18:25:50;4.40;;;0.77;;
36575;SDS011;45700;50.930;5.168;2023-08-07T18:29:51;0.40;;;0.40;;
36575;SDS011;45700;50.930;5.168;2023-08-07T18:33:52;1.73;;;0.60;;
36575;SDS011;45700;50.930;5.168;2023-08-07T18:37:53;1.05;;;0.68;;
36575;SDS011;45700;50.930;5.168;2023-08-07T18:41:54;0.88;;;0.40;;
36575;SDS011;45700;50.930;5.168;2023-08-07T18:45:55;0.85;;;0.50;;
36575;SDS011;45700;50.930;5.168;2023-08-07T18:49:56;1.05;;;0.40;;
36575;SDS011;45700;50.930;5.168;2023-08-07T18:53:57;1.10;;;0.68;;
36575;SDS011;45700;50.930;5.168;2023-08-07T18:57:58;0.43;;;0.43;;
36575;SDS011;45700;50.930;5.168;2023-08-07T19:01:59;1.48;;;0.65;;
36575;SDS011;45700;50.930;5.168;2023-08-07T19:06:00;0.90;;;0.65;;
36575;SDS011;45700;50.930;5.168;2023-08-07T19:10:05;1.85;;;1.05;;
36575;SDS011;45700;50.930;5.168;2023-08-07T19:14:06;2.70;;;1.17;;
36575;SDS011;45700;50.930;5.168;2023-08-07T19:18:07;1.05;;;0.65;;
36575;SDS011;45700;50.930;5.168;2023-08-07T19:22:08;3.67;;;1.30;;
36575;SDS011;45700;50.930;5.168;2023-08-07T19:26:09;1.65;;;1.00;;
36575;SDS011;45700;50.930;5.168;2023-08-07T19:30:10;5.80;;;1.30;;
36575;SDS011;45700;50.930;5.168;2023-08-07T19:34:11;2.00;;;1.05;;
36575;SDS011;45700;50.930;5.168;2023-08-07T19:38:12;1.10;;;0.80;;
36575;SDS011;45700;50.930;5.168;2023-08-07T19:42:14;5.75;;;0.77;;
36575;SDS011;45700;50.930;5.168;2023-08-07T19:46:15;1.55;;;0.85;;
36575;SDS011;45700;50.930;5.168;2023-08-07T19:50:17;1.60;;;0.90;;
36575;SDS011;45700;50.930;5.168;2023-08-07T19:54:18;1.85;;;0.80;;
36575;SDS011;45700;50.930;5.168;2023-08-07T19:58:19;1.00;;;0.85;;
36575;SDS011;45700;50.930;5.168;2023-08-07T20:02:20;4.38;;;1.00;;
36575;SDS011;45700;50.930;5.168;2023-08-07T20:06:21;1.70;;;1.00;;
36575;SDS011;45700;50.930;5.168;2023-08-07T20:10:22;0.90;;;0.85;;
36575;SDS011;45700;50.930;5.168;2023-08-07T20:14:23;1.38;;;1.00;;
36575;SDS011;45700;50.930;5.168;2023-08-07T20:18:24;4.72;;;1.38;;
36575;SDS011;45700;50.930;5.168;2023-08-07T20:22:25;1.35;;;0.88;;
36575;SDS011;45700;50.930;5.168;2023-08-07T20:26:26;2.85;;;0.98;;
36575;SDS011;45700;50.930;5.168;2023-08-07T20:30:27;1.77;;;1.20;;
36575;SDS011;45700;50.930;5.168;2023-08-07T20:34:29;4.57;;;1.20;;
36575;SDS011;45700;50.930;5.168;2023-08-07T20:38:30;2.47;;;1.13;;
36575;SDS011;45700;50.930;5.168;2023-08-07T20:42:31;2.95;;;1.52;;
36575;SDS011;45700;50.930;5.168;2023-08-07T20:46:32;1.95;;;1.30;;
36575;SDS011;45700;50.930;5.168;2023-08-07T20:50:33;6.45;;;1.58;;
36575;SDS011;45700;50.930;5.168;2023-08-07T20:54:34;4.03;;;1.35;;
36575;SDS011;45700;50.930;5.168;2023-08-07T20:58:35;3.13;;;1.58;;
36575;SDS011;45700;50.930;5.168;2023-08-07T21:02:36;4.18;;;1.60;;
36575;SDS011;45700;50.930;5.168;2023-08-07T21:06:37;3.05;;;1.45;;
36575;SDS011;45700;50.930;5.168;2023-08-07T21:10:38;6.30;;;1.73;;
36575;SDS011;45700;50.930;5.168;2023-08-07T21:14:39;4.93;;;1.23;;
36575;SDS011;45700;50.930;5.168;2023-08-07T21:18:40;2.55;;;1.67;;
36575;SDS011;45700;50.930;5.168;2023-08-07T21:22:41;4.05;;;1.67;;
36575;SDS011;45700;50.930;5.168;2023-08-07T21:26:42;3.92;;;1.48;;
36575;SDS011;45700;50.930;5.168;2023-08-07T21:30:43;4.57;;;1.55;;
36575;SDS011;45700;50.930;5.168;2023-08-07T21:34:44;2.47;;;1.27;;
36575;SDS011;45700;50.930;5.168;2023-08-07T21:38:45;2.83;;;1.50;;
36575;SDS011;45700;50.930;5.168;2023-08-07T21:42:46;4.97;;;1.95;;
36575;SDS011;45700;50.930;5.168;2023-08-07T21:46:47;7.05;;;1.90;;
36575;SDS011;45700;50.930;5.168;2023-08-07T21:50:48;5.00;;;2.05;;
36575;SDS011;45700;50.930;5.168;2023-08-07T21:54:49;3.63;;;1.88;;
36575;SDS011;45700;50.930;5.168;2023-08-07T21:58:50;4.80;;;2.00;;
36575;SDS011;45700;50.930;5.168;2023-08-07T22:02:51;4.68;;;1.80;;
36575;SDS011;45700;50.930;5.168;2023-08-07T22:06:52;3.58;;;1.92;;
36575;SDS011;45700;50.930;5.168;2023-08-07T22:10:53;3.70;;;1.85;;
36575;SDS011;45700;50.930;5.168;2023-08-07T22:14:54;5.97;;;2.00;;
36575;SDS011;45700;50.930;5.168;2023-08-07T22:18:56;3.63;;;1.95;;
36575;SDS011;45700;50.930;5.168;2023-08-07T22:22:57;3.78;;;2.25;;
36575;SDS011;45700;50.930;5.168;2023-08-07T22:26:58;4.50;;;2.47;;
36575;SDS011;45700;50.930;5.168;2023-08-07T22:30:59;7.60;;;2.28;;
36575;SDS011;45700;50.930;5.168;2023-08-07T22:35:00;3.50;;;1.85;;
36575;SDS011;45700;50.930;5.168;2023-08-07T22:39:01;6.07;;;2.33;;
36575;SDS011;45700;50.930;5.168;2023-08-07T22:43:02;3.42;;;2.20;;
36575;SDS011;45700;50.930;5.168;2023-08-07T22:47:03;4.03;;;2.13;;
36575;SDS011;45700;50.930;5.168;2023-08-07T22:51:06;4.47;;;2.33;;
36575;SDS011;45700;50.930;5.168;2023-08-07T22:55:07;4.72;;;1.90;;
36575;SDS011;45700;50.930;5.168;2023-08-07T22:59:08;5.88;;;2.15;;
36575;SDS011;45700;50.930;5.168;2023-08-07T23:03:09;6.03;;;1.98;;
36575;SDS011;45700;50.930;5.168;2023-08-07T23:07:10;4.70;;;2.28;;
36575;SDS011;45700;50.930;5.168;2023-08-07T23:11:11;4.50;;;2.63;;
36575;SDS011;45700;50.930;5.168;2023-08-07T23:15:12;4.07;;;2.15;;
36575;SDS011;45700;50.930;5.168;2023-08-07T23:19:13;5.20;;;2.10;;
36575;SDS011;45700;50.930;5.168;2023-08-07T23:23:14;3.97;;;2.10;;
36575;SDS011;45700;50.930;5.168;2023-08-07T23:27:15;2.35;;;1.60;;
36575;SDS011;45700;50.930;5.168;2023-08-07T23:31:16;4.57;;;1.90;;
36575;SDS011;45700;50.930;5.168;2023-08-07T23:35:17;4.65;;;1.92;;
36575;SDS011;45700;50.930;5.168;2023-08-07T23:39:18;3.53;;;2.05;;
36575;SDS011;45700;50.930;5.168;2023-08-07T23:43:19;6.28;;;2.35;;
36575;SDS011;45700;50.930;5.168;2023-08-07T23:47:20;4.25;;;2.20;;
36575;SDS011;45700;50.930;5.168;2023-08-07T23:51:21;5.13;;;2.38;;
36575;SDS011;45700;50.930;5.168;2023-08-07T23:55:22;3.70;;;2.00;;
36575;SDS011;45700;50.930;5.168;2023-08-07T23:59:23;3.03;;;1.83;;
